sensor_id;sensor_type;location;lat;lon;timestamp;pressure;altitude;pressure_sealevel;temperature;humidity
62201;BME280;48197;42.732;27.192;2022-08-26T00:13:02;98902.09;;;22.42;65.11
62201;BME280;48197;42.732;27.192;2022-08-26T00:24:23;98884.94;;;22.40;65.04
62201;BME280;48197;42.732;27.192;2022-08-26T00:26:48;98882.09;;;22.34;65.42
62201;BME280;48197;42.732;27.192;2022-08-26T00:29:14;98875.41;;;22.26;66.15
62201;BME280;48197;42.732;27.192;2022-08-26T00:31:40;98881.28;;;22.22;66.00
62201;BME280;48197;42.732;27.192;2022-08-26T00:34:07;98878.94;;;22.21;66.28
62201;BME280;48197;42.732;27.192;2022-08-26T00:36:34;98876.84;;;22.10;67.21
62201;BME280;48197;42.732;27.192;2022-08-26T00:51:15;98869.72;;;22.20;67.40
62201;BME280;48197;42.732;27.192;2022-08-26T00:53:44;98866.66;;;22.13;67.35
62201;BME280;48197;42.732;27.192;2022-08-26T00:58:45;98864.28;;;22.00;68.18
62201;BME280;48197;42.732;27.192;2022-08-26T01:01:13;98860.47;;;22.09;67.69
62201;BME280;48197;42.732;27.192;2022-08-26T01:03:54;98858.19;;;22.13;67.22
62201;BME280;48197;42.732;27.192;2022-08-26T01:06:43;98865.38;;;22.19;66.15
62201;BME280;48197;42.732;27.192;2022-08-26T01:09:11;98853.13;;;22.22;66.29
62201;BME280;48197;42.732;27.192;2022-08-26T01:11:40;98854.91;;;22.20;65.79
62201;BME280;48197;42.732;27.192;2022-08-26T01:17:09;98863.56;;;22.16;65.03
62201;BME280;48197;42.732;27.192;2022-08-26T01:19:37;98862.31;;;22.17;64.95
62201;BME280;48197;42.732;27.192;2022-08-26T01:22:09;98868.19;;;22.19;64.36
62201;BME280;48197;42.732;27.192;2022-08-26T01:24:37;98864.09;;;22.20;63.97
62201;BME280;48197;42.732;27.192;2022-08-26T01:27:06;98862.56;;;22.19;63.84
62201;BME280;48197;42.732;27.192;2022-08-26T01:29:34;98855.91;;;22.17;63.49
62201;BME280;48197;42.732;27.192;2022-08-26T01:32:01;98854.38;;;22.16;63.28
62201;BME280;48197;42.732;27.192;2022-08-26T01:34:33;98849.50;;;22.16;63.26
62201;BME280;48197;42.732;27.192;2022-08-26T01:40:04;98839.78;;;22.17;62.50
62201;BME280;48197;42.732;27.192;2022-08-26T01:42:40;98833.91;;;22.15;62.48
62201;BME280;48197;42.732;27.192;2022-08-26T01:45:11;98840.56;;;22.18;62.11
62201;BME280;48197;42.732;27.192;2022-08-26T01:47:41;98824.69;;;22.20;61.65
62201;BME280;48197;42.732;27.192;2022-08-26T01:50:22;98826.25;;;22.21;61.57
62201;BME280;48197;42.732;27.192;2022-08-26T01:52:52;98807.28;;;22.16;61.44
62201;BME280;48197;42.732;27.192;2022-08-26T01:55:20;98792.44;;;22.10;61.63
62201;BME280;48197;42.732;27.192;2022-08-26T01:57:48;98792.44;;;22.05;61.62
62201;BME280;48197;42.732;27.192;2022-08-26T02:00:24;98790.59;;;21.96;61.58
62201;BME280;48197;42.732;27.192;2022-08-26T02:15:15;98808.97;;;21.86;61.75
62201;BME280;48197;42.732;27.192;2022-08-26T02:17:44;98814.34;;;21.84;61.73
62201;BME280;48197;42.732;27.192;2022-08-26T02:20:16;98852.91;;;21.77;62.20
62201;BME280;48197;42.732;27.192;2022-08-26T02:22:45;98874.81;;;21.62;62.24
62201;BME280;48197;42.732;27.192;2022-08-26T02:25:20;98892.84;;;21.50;62.68
62201;BME280;48197;42.732;27.192;2022-08-26T02:30:38;98893.63;;;21.50;62.72
62201;BME280;48197;42.732;27.192;2022-08-26T02:33:06;98901.75;;;21.43;62.87
62201;BME280;48197;42.732;27.192;2022-08-26T02:35:33;98892.63;;;21.21;63.69
62201;BME280;48197;42.732;27.192;2022-08-26T02:38:01;98886.41;;;20.86;65.46
62201;BME280;48197;42.732;27.192;2022-08-26T02:40:29;98877.31;;;20.70;66.10
62201;BME280;48197;42.732;27.192;2022-08-26T02:42:57;98877.25;;;20.65;66.33
62201;BME280;48197;42.732;27.192;2022-08-26T02:45:24;98882.59;;;20.63;66.55
62201;BME280;48197;42.732;27.192;2022-08-26T02:47:52;98881.94;;;20.73;66.54
62201;BME280;48197;42.732;27.192;2022-08-26T02:50:19;98877.81;;;20.95;65.29
62201;BME280;48197;42.732;27.192;2022-08-26T02:52:46;98883.34;;;21.15;64.71
62201;BME280;48197;42.732;27.192;2022-08-26T02:55:13;98870.22;;;21.33;63.81
62201;BME280;48197;42.732;27.192;2022-08-26T02:57:41;98877.53;;;21.51;63.02
62201;BME280;48197;42.732;27.192;2022-08-26T03:00:08;98890.91;;;21.61;62.03
62201;BME280;48197;42.732;27.192;2022-08-26T03:02:36;98896.31;;;21.71;61.06
62201;BME280;48197;42.732;27.192;2022-08-26T03:05:03;98904.81;;;21.76;60.86
62201;BME280;48197;42.732;27.192;2022-08-26T03:07:29;98899.94;;;21.77;60.43
62201;BME280;48197;42.732;27.192;2022-08-26T03:12:54;98898.44;;;21.81;59.57
62201;BME280;48197;42.732;27.192;2022-08-26T03:15:27;98895.41;;;21.91;58.66
62201;BME280;48197;42.732;27.192;2022-08-26T03:17:55;98902.88;;;21.99;58.24
62201;BME280;48197;42.732;27.192;2022-08-26T03:20:23;98899.56;;;22.01;58.32
62201;BME280;48197;42.732;27.192;2022-08-26T03:22:57;98907.97;;;21.95;58.48
62201;BME280;48197;42.732;27.192;2022-08-26T03:25:32;98896.72;;;21.95;58.07
62201;BME280;48197;42.732;27.192;2022-08-26T03:27:58;98888.53;;;21.97;58.21
62201;BME280;48197;42.732;27.192;2022-08-26T03:30:27;98888.53;;;21.97;58.27
62201;BME280;48197;42.732;27.192;2022-08-26T03:33:08;98876.53;;;21.97;58.00
62201;BME280;48197;42.732;27.192;2022-08-26T03:35:39;98881.44;;;22.02;57.68
62201;BME280;48197;42.732;27.192;2022-08-26T03:38:06;98896.00;;;22.06;57.21
62201;BME280;48197;42.732;27.192;2022-08-26T03:52:29;98927.22;;;22.02;56.37
62201;BME280;48197;42.732;27.192;2022-08-26T03:54:56;98916.72;;;22.03;56.29
62201;BME280;48197;42.732;27.192;2022-08-26T04:00:22;98915.75;;;22.12;55.43
62201;BME280;48197;42.732;27.192;2022-08-26T04:02:49;98911.69;;;22.18;54.94
62201;BME280;48197;42.732;27.192;2022-08-26T04:05:16;98907.41;;;22.29;54.93
62201;BME280;48197;42.732;27.192;2022-08-26T04:07:46;98916.66;;;22.35;54.40
62201;BME280;48197;42.732;27.192;2022-08-26T04:10:13;98920.00;;;22.39;54.46
62201;BME280;48197;42.732;27.192;2022-08-26T04:12:40;98921.56;;;22.46;54.08
62201;BME280;48197;42.732;27.192;2022-08-26T04:15:08;98922.84;;;22.50;54.03
62201;BME280;48197;42.732;27.192;2022-08-26T04:17:37;98917.75;;;22.54;54.08
62201;BME280;48197;42.732;27.192;2022-08-26T04:20:42;98935.19;;;22.64;53.55
62201;BME280;48197;42.732;27.192;2022-08-26T04:26:34;98933.97;;;22.88;52.99
62201;BME280;48197;42.732;27.192;2022-08-26T04:29:15;98929.63;;;22.98;52.76
62201;BME280;48197;42.732;27.192;2022-08-26T04:31:45;98931.50;;;23.07;52.52
62201;BME280;48197;42.732;27.192;2022-08-26T04:34:13;98933.78;;;23.14;52.20
62201;BME280;48197;42.732;27.192;2022-08-26T04:36:40;98935.34;;;23.20;51.66
62201;BME280;48197;42.732;27.192;2022-08-26T04:39:07;98929.19;;;23.22;51.70
62201;BME280;48197;42.732;27.192;2022-08-26T04:41:38;98929.19;;;23.22;51.67
62201;BME280;48197;42.732;27.192;2022-08-26T04:44:05;98918.94;;;23.24;51.44
62201;BME280;48197;42.732;27.192;2022-08-26T04:58:44;98923.31;;;23.31;51.60
62201;BME280;48197;42.732;27.192;2022-08-26T05:01:10;98923.06;;;23.35;51.75
62201;BME280;48197;42.732;27.192;2022-08-26T05:03:38;98924.34;;;23.39;51.63
62201;BME280;48197;42.732;27.192;2022-08-26T05:06:08;98929.19;;;23.44;52.01
62201;BME280;48197;42.732;27.192;2022-08-26T05:08:38;98934.06;;;23.50;51.79
62201;BME280;48197;42.732;27.192;2022-08-26T05:11:21;98937.94;;;23.58;51.84
62201;BME280;48197;42.732;27.192;2022-08-26T05:14:06;98942.78;;;23.69;51.70
62201;BME280;48197;42.732;27.192;2022-08-26T05:16:34;98939.47;;;23.81;51.40
62201;BME280;48197;42.732;27.192;2022-08-26T05:19:00;98953.56;;;23.98;51.00
62201;BME280;48197;42.732;27.192;2022-08-26T05:21:28;98947.84;;;24.15;50.84
62201;BME280;48197;42.732;27.192;2022-08-26T05:23:55;98948.34;;;24.31;50.16
62201;BME280;48197;42.732;27.192;2022-08-26T05:26:24;98945.72;;;24.38;49.91
62201;BME280;48197;42.732;27.192;2022-08-26T05:28:52;98943.66;;;24.44;50.08
62201;BME280;48197;42.732;27.192;2022-08-26T05:31:20;98956.75;;;24.53;49.77
62201;BME280;48197;42.732;27.192;2022-08-26T05:33:48;98949.75;;;24.65;50.00
62201;BME280;48197;42.732;27.192;2022-08-26T05:36:16;98956.38;;;24.79;49.79
62201;BME280;48197;42.732;27.192;2022-08-26T05:38:44;98962.47;;;24.89;49.29
62201;BME280;48197;42.732;27.192;2022-08-26T05:41:19;98965.72;;;25.04;48.79
62201;BME280;48197;42.732;27.192;2022-08-26T05:43:48;98956.66;;;25.17;47.76
62201;BME280;48197;42.732;27.192;2022-08-26T05:46:15;98960.59;;;25.44;47.75
62201;BME280;48197;42.732;27.192;2022-08-26T05:48:42;98960.19;;;25.65;46.98
62201;BME280;48197;42.732;27.192;2022-08-26T05:51:10;98960.59;;;25.75;46.02
62201;BME280;48197;42.732;27.192;2022-08-26T05:53:37;98960.44;;;25.97;45.90
62201;BME280;48197;42.732;27.192;2022-08-26T05:56:06;98964.25;;;26.00;44.85
62201;BME280;48197;42.732;27.192;2022-08-26T05:58:33;98962.72;;;25.99;44.80
62201;BME280;48197;42.732;27.192;2022-08-26T06:01:08;98973.59;;;25.95;44.42
62201;BME280;48197;42.732;27.192;2022-08-26T06:03:36;98971.53;;;25.95;44.48
62201;BME280;48197;42.732;27.192;2022-08-26T06:06:04;98966.34;;;25.99;43.41
62201;BME280;48197;42.732;27.192;2022-08-26T06:08:32;98975.31;;;26.03;43.54
62201;BME280;48197;42.732;27.192;2022-08-26T06:11:00;98975.63;;;25.94;43.70
62201;BME280;48197;42.732;27.192;2022-08-26T06:13:28;98980.06;;;25.90;44.02
62201;BME280;48197;42.732;27.192;2022-08-26T06:15:55;98982.38;;;25.85;44.20
62201;BME280;48197;42.732;27.192;2022-08-26T06:18:29;98957.84;;;25.69;43.59
62201;BME280;48197;42.732;27.192;2022-08-26T06:21:00;98982.88;;;25.90;43.38
62201;BME280;48197;42.732;27.192;2022-08-26T06:23:28;98981.09;;;26.17;42.27
62201;BME280;48197;42.732;27.192;2022-08-26T06:26:14;98981.25;;;26.74;41.46
62201;BME280;48197;42.732;27.192;2022-08-26T06:28:41;98990.34;;;27.04;40.77
62201;BME280;48197;42.732;27.192;2022-08-26T06:31:09;98999.78;;;27.13;40.37
62201;BME280;48197;42.732;27.192;2022-08-26T06:33:36;98994.19;;;27.07;40.29
62201;BME280;48197;42.732;27.192;2022-08-26T06:36:03;99005.63;;;27.01;40.30
62201;BME280;48197;42.732;27.192;2022-08-26T06:38:30;99003.00;;;26.84;40.87
62201;BME280;48197;42.732;27.192;2022-08-26T06:40:58;98997.94;;;26.77;40.76
62201;BME280;48197;42.732;27.192;2022-08-26T06:43:26;99001.75;;;26.80;41.13
62201;BME280;48197;42.732;27.192;2022-08-26T06:45:59;99006.31;;;26.88;40.62
62201;BME280;48197;42.732;27.192;2022-08-26T06:48:26;98998.81;;;27.10;40.72
62201;BME280;48197;42.732;27.192;2022-08-26T06:51:02;98998.59;;;27.59;39.92
62201;BME280;48197;42.732;27.192;2022-08-26T06:53:29;98994.31;;;27.85;39.33
62201;BME280;48197;42.732;27.192;2022-08-26T06:55:56;98998.63;;;28.18;38.80
62201;BME280;48197;42.732;27.192;2022-08-26T06:58:23;98989.81;;;28.35;38.29
62201;BME280;48197;42.732;27.192;2022-08-26T07:00:50;98994.28;;;28.84;38.00
62201;BME280;48197;42.732;27.192;2022-08-26T07:03:17;99003.16;;;30.04;36.26
62201;BME280;48197;42.732;27.192;2022-08-26T07:05:45;99004.88;;;31.61;34.37
62201;BME280;48197;42.732;27.192;2022-08-26T07:08:12;99002.41;;;32.42;32.35
62201;BME280;48197;42.732;27.192;2022-08-26T07:10:40;99005.47;;;32.44;32.26
62201;BME280;48197;42.732;27.192;2022-08-26T07:13:07;99002.00;;;31.53;32.68
62201;BME280;48197;42.732;27.192;2022-08-26T07:15:37;99009.63;;;30.62;34.16
62201;BME280;48197;42.732;27.192;2022-08-26T07:18:05;99013.13;;;30.19;34.51
62201;BME280;48197;42.732;27.192;2022-08-26T07:20:37;99017.94;;;30.03;35.62
62201;BME280;48197;42.732;27.192;2022-08-26T07:23:05;99016.69;;;30.11;34.92
62201;BME280;48197;42.732;27.192;2022-08-26T07:25:33;99012.66;;;30.07;35.57
62201;BME280;48197;42.732;27.192;2022-08-26T07:28:00;99014.28;;;30.44;35.37
62201;BME280;48197;42.732;27.192;2022-08-26T07:30:28;99013.50;;;31.17;34.19
62201;BME280;48197;42.732;27.192;2022-08-26T07:32:55;99015.00;;;32.23;32.58
62201;BME280;48197;42.732;27.192;2022-08-26T07:35:23;99014.06;;;33.00;30.94
62201;BME280;48197;42.732;27.192;2022-08-26T07:37:51;99021.75;;;32.89;30.45
62201;BME280;48197;42.732;27.192;2022-08-26T07:40:17;99019.38;;;32.40;31.27
62201;BME280;48197;42.732;27.192;2022-08-26T07:42:44;99017.47;;;31.88;31.56
62201;BME280;48197;42.732;27.192;2022-08-26T07:45:11;99021.66;;;31.12;32.23
62201;BME280;48197;42.732;27.192;2022-08-26T07:47:38;99023.72;;;30.97;32.72
62201;BME280;48197;42.732;27.192;2022-08-26T07:50:05;99013.00;;;31.41;32.36
62201;BME280;48197;42.732;27.192;2022-08-26T07:52:35;99010.50;;;31.30;32.98
62201;BME280;48197;42.732;27.192;2022-08-26T07:55:04;99016.50;;;31.03;32.58
62201;BME280;48197;42.732;27.192;2022-08-26T07:57:32;99013.44;;;30.36;33.56
62201;BME280;48197;42.732;27.192;2022-08-26T07:59:59;99016.81;;;30.06;34.33
62201;BME280;48197;42.732;27.192;2022-08-26T08:02:27;99014.28;;;29.95;34.63
62201;BME280;48197;42.732;27.192;2022-08-26T08:04:54;99008.38;;;29.92;34.63
62201;BME280;48197;42.732;27.192;2022-08-26T08:07:22;99005.84;;;30.31;34.31
62201;BME280;48197;42.732;27.192;2022-08-26T08:09:49;99004.38;;;31.18;33.39
62201;BME280;48197;42.732;27.192;2022-08-26T08:12:17;99000.16;;;32.02;32.45
62201;BME280;48197;42.732;27.192;2022-08-26T08:14:45;98997.50;;;32.04;31.43
62201;BME280;48197;42.732;27.192;2022-08-26T08:17:12;98998.41;;;31.60;32.15
62201;BME280;48197;42.732;27.192;2022-08-26T08:19:40;98994.16;;;31.30;32.27
62201;BME280;48197;42.732;27.192;2022-08-26T08:22:07;98998.31;;;30.85;32.76
62201;BME280;48197;42.732;27.192;2022-08-26T08:24:34;98999.03;;;30.70;33.34
62201;BME280;48197;42.732;27.192;2022-08-26T08:27:01;98992.31;;;30.97;32.86
62201;BME280;48197;42.732;27.192;2022-08-26T08:29:28;98992.25;;;31.41;33.04
62201;BME280;48197;42.732;27.192;2022-08-26T08:31:55;98992.34;;;32.10;31.78
62201;BME280;48197;42.732;27.192;2022-08-26T08:34:26;98994.22;;;32.30;30.93
62201;BME280;48197;42.732;27.192;2022-08-26T08:36:53;98994.66;;;32.11;29.97
62201;BME280;48197;42.732;27.192;2022-08-26T08:39:20;98996.31;;;31.53;30.90
62201;BME280;48197;42.732;27.192;2022-08-26T08:41:56;98990.41;;;31.51;31.64
62201;BME280;48197;42.732;27.192;2022-08-26T08:44:30;98993.66;;;31.78;30.49
62201;BME280;48197;42.732;27.192;2022-08-26T08:47:00;98986.41;;;31.85;30.60
62201;BME280;48197;42.732;27.192;2022-08-26T08:49:31;98991.00;;;32.11;30.17
62201;BME280;48197;42.732;27.192;2022-08-26T08:52:01;98995.16;;;32.48;29.56
62201;BME280;48197;42.732;27.192;2022-08-26T08:54:31;98996.34;;;32.93;28.73
62201;BME280;48197;42.732;27.192;2022-08-26T08:57:01;98989.16;;;33.25;28.70
62201;BME280;48197;42.732;27.192;2022-08-26T08:59:33;98984.88;;;33.01;27.98
62201;BME280;48197;42.732;27.192;2022-08-26T09:02:04;98991.47;;;33.19;28.15
62201;BME280;48197;42.732;27.192;2022-08-26T09:07:00;98991.84;;;33.23;28.93
62201;BME280;48197;42.732;27.192;2022-08-26T09:09:30;98994.84;;;33.33;28.43
62201;BME280;48197;42.732;27.192;2022-08-26T09:11:59;98996.16;;;32.99;28.78
62201;BME280;48197;42.732;27.192;2022-08-26T09:14:27;98988.31;;;33.00;29.50
62201;BME280;48197;42.732;27.192;2022-08-26T09:17:10;98983.53;;;33.02;29.13
62201;BME280;48197;42.732;27.192;2022-08-26T09:19:45;98988.06;;;33.13;28.96
62201;BME280;48197;42.732;27.192;2022-08-26T09:22:36;98989.16;;;33.25;28.82
62201;BME280;48197;42.732;27.192;2022-08-26T09:25:03;98988.31;;;33.40;28.65
62201;BME280;48197;42.732;27.192;2022-08-26T09:27:40;98989.13;;;32.92;28.87
62201;BME280;48197;42.732;27.192;2022-08-26T09:30:10;98996.28;;;32.45;29.64
62201;BME280;48197;42.732;27.192;2022-08-26T09:32:38;98993.44;;;32.38;29.65
62201;BME280;48197;42.732;27.192;2022-08-26T09:35:23;98996.69;;;32.42;29.48
62201;BME280;48197;42.732;27.192;2022-08-26T09:37:51;98984.16;;;32.14;30.00
62201;BME280;48197;42.732;27.192;2022-08-26T09:40:23;98986.41;;;31.85;29.76
62201;BME280;48197;42.732;27.192;2022-08-26T09:43:08;98986.44;;;31.69;30.50
62201;BME280;48197;42.732;27.192;2022-08-26T09:45:35;98992.72;;;31.76;30.64
62201;BME280;48197;42.732;27.192;2022-08-26T09:48:04;98996.75;;;32.03;30.35
62201;BME280;48197;42.732;27.192;2022-08-26T09:50:38;98999.22;;;32.22;29.82
62201;BME280;48197;42.732;27.192;2022-08-26T09:53:14;98992.69;;;32.29;29.86
62201;BME280;48197;42.732;27.192;2022-08-26T09:55:45;99000.84;;;32.56;30.14
62201;BME280;48197;42.732;27.192;2022-08-26T10:00:59;98998.44;;;31.91;30.18
62201;BME280;48197;42.732;27.192;2022-08-26T10:03:27;98999.75;;;32.13;30.53
62201;BME280;48197;42.732;27.192;2022-08-26T10:05:55;98999.91;;;32.61;29.35
62201;BME280;48197;42.732;27.192;2022-08-26T10:08:27;98993.59;;;32.47;29.40
62201;BME280;48197;42.732;27.192;2022-08-26T10:10:56;99006.41;;;32.54;29.66
62201;BME280;48197;42.732;27.192;2022-08-26T10:13:27;99002.41;;;32.57;29.66
62201;BME280;48197;42.732;27.192;2022-08-26T10:16:00;98991.28;;;32.69;29.51
62201;BME280;48197;42.732;27.192;2022-08-26T10:18:31;99002.41;;;33.05;28.98
62201;BME280;48197;42.732;27.192;2022-08-26T10:21:06;98992.63;;;32.75;29.09
62201;BME280;48197;42.732;27.192;2022-08-26T10:23:39;98991.13;;;32.67;29.48
62201;BME280;48197;42.732;27.192;2022-08-26T10:31:19;98992.09;;;32.39;29.77
62201;BME280;48197;42.732;27.192;2022-08-26T10:33:49;98984.78;;;32.76;29.64
62201;BME280;48197;42.732;27.192;2022-08-26T10:36:17;98984.94;;;32.86;29.26
62201;BME280;48197;42.732;27.192;2022-08-26T10:39:06;98989.81;;;32.45;29.18
62201;BME280;48197;42.732;27.192;2022-08-26T10:41:37;98984.88;;;32.30;29.17
62201;BME280;48197;42.732;27.192;2022-08-26T10:44:05;98980.31;;;32.19;28.98
62201;BME280;48197;42.732;27.192;2022-08-26T10:46:37;98981.47;;;31.85;29.76
62201;BME280;48197;42.732;27.192;2022-08-26T10:49:11;98986.63;;;31.71;29.68
62201;BME280;48197;42.732;27.192;2022-08-26T10:54:23;98984.09;;;31.45;30.41
62201;BME280;48197;42.732;27.192;2022-08-26T10:57:00;98979.13;;;31.38;30.46
62201;BME280;48197;42.732;27.192;2022-08-26T10:59:47;98980.63;;;31.31;30.03
62201;BME280;48197;42.732;27.192;2022-08-26T11:07:44;98979.13;;;30.86;30.85
62201;BME280;48197;42.732;27.192;2022-08-26T11:12:59;98975.44;;;30.62;31.41
62201;BME280;48197;42.732;27.192;2022-08-26T11:23:38;98990.00;;;30.01;32.42
62201;BME280;48197;42.732;27.192;2022-08-26T11:26:12;98990.34;;;29.98;32.42
62201;BME280;48197;42.732;27.192;2022-08-26T11:28:46;98979.88;;;29.92;32.60
62201;BME280;48197;42.732;27.192;2022-08-26T11:31:50;98970.41;;;29.98;32.27
62201;BME280;48197;42.732;27.192;2022-08-26T11:34:06;98976.13;;;29.98;32.28
62201;BME280;48197;42.732;27.192;2022-08-26T11:44:45;98959.91;;;30.13;32.33
62201;BME280;48197;42.732;27.192;2022-08-26T11:47:24;98958.94;;;30.11;32.19
62201;BME280;48197;42.732;27.192;2022-08-26T11:50:16;98963.63;;;30.01;32.40
62201;BME280;48197;42.732;27.192;2022-08-26T11:52:56;98960.78;;;30.01;32.50
62201;BME280;48197;42.732;27.192;2022-08-26T11:55:27;98952.66;;;30.12;32.44
62201;BME280;48197;42.732;27.192;2022-08-26T12:10:09;98938.47;;;30.49;31.77
62201;BME280;48197;42.732;27.192;2022-08-26T12:12:36;98933.34;;;30.47;31.84
62201;BME280;48197;42.732;27.192;2022-08-26T12:15:08;98937.97;;;30.29;31.97
62201;BME280;48197;42.732;27.192;2022-08-26T12:17:35;98933.53;;;30.21;32.21
62201;BME280;48197;42.732;27.192;2022-08-26T12:20:03;98932.53;;;30.10;31.92
62201;BME280;48197;42.732;27.192;2022-08-26T12:22:31;98932.00;;;29.91;32.22
62201;BME280;48197;42.732;27.192;2022-08-26T12:25:07;98926.31;;;29.91;32.33
62201;BME280;48197;42.732;27.192;2022-08-26T12:27:35;98929.22;;;29.99;31.96
62201;BME280;48197;42.732;27.192;2022-08-26T12:32:32;98921.41;;;29.91;31.72
62201;BME280;48197;42.732;27.192;2022-08-26T12:35:00;98915.94;;;30.01;31.69
62201;BME280;48197;42.732;27.192;2022-08-26T12:37:28;98926.16;;;30.25;31.48
62201;BME280;48197;42.732;27.192;2022-08-26T12:42:43;98912.75;;;30.05;31.33
62201;BME280;48197;42.732;27.192;2022-08-26T12:45:10;98922.91;;;29.92;31.42
62201;BME280;48197;42.732;27.192;2022-08-26T12:47:37;98922.50;;;29.88;31.60
62201;BME280;48197;42.732;27.192;2022-08-26T12:52:41;98921.09;;;30.03;31.86
62201;BME280;48197;42.732;27.192;2022-08-26T12:55:21;98920.03;;;30.13;31.28
62201;BME280;48197;42.732;27.192;2022-08-26T12:57:49;98912.09;;;30.20;31.18
62201;BME280;48197;42.732;27.192;2022-08-26T13:02:50;98910.34;;;30.53;31.19
62201;BME280;48197;42.732;27.192;2022-08-26T13:05:24;98921.06;;;30.68;31.11
62201;BME280;48197;42.732;27.192;2022-08-26T13:10:38;98920.47;;;30.62;30.88
62201;BME280;48197;42.732;27.192;2022-08-26T13:13:06;98919.50;;;30.51;31.02
62201;BME280;48197;42.732;27.192;2022-08-26T13:15:33;98921.59;;;30.59;31.38
62201;BME280;48197;42.732;27.192;2022-08-26T13:18:00;98916.50;;;30.72;31.00
62201;BME280;48197;42.732;27.192;2022-08-26T13:20:28;98914.09;;;30.84;30.93
62201;BME280;48197;42.732;27.192;2022-08-26T13:22:54;98914.38;;;31.09;30.58
62201;BME280;48197;42.732;27.192;2022-08-26T13:25:22;98918.25;;;31.43;30.55
62201;BME280;48197;42.732;27.192;2022-08-26T13:27:48;98912.88;;;31.31;30.64
62201;BME280;48197;42.732;27.192;2022-08-26T13:30:15;98913.88;;;31.65;30.40
62201;BME280;48197;42.732;27.192;2022-08-26T13:32:43;98921.66;;;31.87;30.15
62201;BME280;48197;42.732;27.192;2022-08-26T13:35:10;98930.63;;;31.61;30.30
62201;BME280;48197;42.732;27.192;2022-08-26T13:37:37;98918.78;;;31.33;29.93
62201;BME280;48197;42.732;27.192;2022-08-26T13:40:04;98918.97;;;31.28;29.88
62201;BME280;48197;42.732;27.192;2022-08-26T13:42:32;98917.44;;;31.27;30.24
62201;BME280;48197;42.732;27.192;2022-08-26T13:44:59;98917.44;;;31.11;30.64
62201;BME280;48197;42.732;27.192;2022-08-26T13:47:26;98917.22;;;31.09;30.90
62201;BME280;48197;42.732;27.192;2022-08-26T13:49:54;98910.97;;;31.19;30.80
62201;BME280;48197;42.732;27.192;2022-08-26T13:52:21;98918.53;;;31.08;30.58
62201;BME280;48197;42.732;27.192;2022-08-26T13:54:48;98917.38;;;30.88;31.03
62201;BME280;48197;42.732;27.192;2022-08-26T13:57:15;98915.03;;;30.79;30.94
62201;BME280;48197;42.732;27.192;2022-08-26T13:59:41;98908.06;;;30.88;31.17
62201;BME280;48197;42.732;27.192;2022-08-26T14:02:08;98910.31;;;30.89;31.12
62201;BME280;48197;42.732;27.192;2022-08-26T14:04:35;98908.53;;;30.79;31.14
62201;BME280;48197;42.732;27.192;2022-08-26T14:07:02;98903.75;;;30.66;31.39
62201;BME280;48197;42.732;27.192;2022-08-26T14:09:29;98909.97;;;30.49;31.50
62201;BME280;48197;42.732;27.192;2022-08-26T14:11:56;98903.09;;;30.44;31.57
62201;BME280;48197;42.732;27.192;2022-08-26T14:14:22;98921.22;;;30.26;31.54
62201;BME280;48197;42.732;27.192;2022-08-26T14:16:50;98900.78;;;30.06;31.51
62201;BME280;48197;42.732;27.192;2022-08-26T14:19:17;98901.91;;;30.03;31.77
62201;BME280;48197;42.732;27.192;2022-08-26T14:21:44;98912.16;;;30.06;31.87
62201;BME280;48197;42.732;27.192;2022-08-26T14:24:11;98915.88;;;29.93;31.65
62201;BME280;48197;42.732;27.192;2022-08-26T14:26:38;98912.03;;;29.83;32.04
62201;BME280;48197;42.732;27.192;2022-08-26T14:29:05;98910.28;;;29.80;32.18
62201;BME280;48197;42.732;27.192;2022-08-26T14:31:33;98905.53;;;29.75;32.59
62201;BME280;48197;42.732;27.192;2022-08-26T14:34:04;98912.78;;;29.63;32.61
62201;BME280;48197;42.732;27.192;2022-08-26T14:36:32;98917.19;;;29.64;32.81
62201;BME280;48197;42.732;27.192;2022-08-26T14:39:08;98925.72;;;29.64;33.01
62201;BME280;48197;42.732;27.192;2022-08-26T14:41:45;98921.44;;;29.70;33.18
62201;BME280;48197;42.732;27.192;2022-08-26T14:44:14;98917.72;;;29.62;33.28
62201;BME280;48197;42.732;27.192;2022-08-26T14:46:43;98912.88;;;29.49;32.88
62201;BME280;48197;42.732;27.192;2022-08-26T14:49:10;98918.03;;;29.30;32.85
62201;BME280;48197;42.732;27.192;2022-08-26T14:51:37;98916.97;;;29.20;32.89
62201;BME280;48197;42.732;27.192;2022-08-26T14:54:04;98916.53;;;29.16;32.90
62201;BME280;48197;42.732;27.192;2022-08-26T14:59:37;98913.94;;;29.04;34.08
62201;BME280;48197;42.732;27.192;2022-08-26T15:02:05;98917.84;;;28.80;33.21
62201;BME280;48197;42.732;27.192;2022-08-26T15:04:32;98909.56;;;28.69;33.67
62201;BME280;48197;42.732;27.192;2022-08-26T15:06:59;98912.88;;;28.60;33.54
62201;BME280;48197;42.732;27.192;2022-08-26T15:09:26;98911.78;;;28.49;33.78
62201;BME280;48197;42.732;27.192;2022-08-26T15:11:54;98905.31;;;28.36;33.70
62201;BME280;48197;42.732;27.192;2022-08-26T15:14:21;98919.88;;;28.19;34.06
62201;BME280;48197;42.732;27.192;2022-08-26T15:29:00;98923.94;;;27.64;34.34
62201;BME280;48197;42.732;27.192;2022-08-26T15:31:27;98923.81;;;27.57;34.18
62201;BME280;48197;42.732;27.192;2022-08-26T15:33:56;98923.69;;;27.49;34.21
62201;BME280;48197;42.732;27.192;2022-08-26T15:36:25;98925.84;;;27.43;34.56
62201;BME280;48197;42.732;27.192;2022-08-26T15:38:52;98937.06;;;27.35;34.80
62201;BME280;48197;42.732;27.192;2022-08-26T15:41:19;98935.63;;;27.28;34.94
62201;BME280;48197;42.732;27.192;2022-08-26T15:43:46;98936.50;;;27.23;35.25
62201;BME280;48197;42.732;27.192;2022-08-26T15:46:13;98936.88;;;27.14;35.00
62201;BME280;48197;42.732;27.192;2022-08-26T15:48:40;98942.38;;;27.06;35.14
62201;BME280;48197;42.732;27.192;2022-08-26T15:51:08;98938.09;;;27.00;35.33